createdAt,value
2022-10-09T00:00:48.404Z,89.33
2022-10-09T00:03:17.166Z,89.19
2022-10-09T00:05:45.369Z,89.84
2022-10-09T00:08:12.176Z,90.06
2022-10-09T00:10:43.128Z,89.69
2022-10-09T00:13:09.912Z,89.44
2022-10-09T00:15:41.431Z,89.45
2022-10-09T00:18:09.812Z,89.64
2022-10-09T00:20:41.656Z,89.94
2022-10-09T00:23:09.414Z,90.02
2022-10-09T00:25:36.462Z,90.91
2022-10-09T00:28:04.679Z,91.65
2022-10-09T00:30:31.670Z,90.84
2022-10-09T00:32:58.387Z,90.81
2022-10-09T00:35:25.032Z,90.14
2022-10-09T00:37:51.859Z,90.16
2022-10-09T00:40:18.438Z,90.71
2022-10-09T00:42:45.698Z,90.93
2022-10-09T00:45:19.915Z,90.33
2022-10-09T00:47:53.565Z,90.24
2022-10-09T00:50:40.123Z,91.74
2022-10-09T00:53:07.998Z,91.78
2022-10-09T00:55:35.776Z,91.20
2022-10-09T00:58:02.672Z,91.92
2022-10-09T01:00:29.505Z,92.39
2022-10-09T01:02:56.201Z,91.96
2022-10-09T01:05:32.342Z,92.00
2022-10-09T01:08:16.847Z,92.57
2022-10-09T01:11:06.832Z,92.98
2022-10-09T01:13:38.849Z,92.80
2022-10-09T01:16:22.833Z,92.26
2022-10-09T01:19:08.915Z,92.78
2022-10-09T01:21:44.327Z,91.14
2022-10-09T01:24:13.880Z,92.65
2022-10-09T01:27:01.692Z,93.25
2022-10-09T01:29:35.389Z,93.05
2022-10-09T01:32:04.432Z,92.28
2022-10-09T01:34:32.538Z,93.44
2022-10-09T01:37:00.093Z,93.69
2022-10-09T01:39:28.980Z,93.25
2022-10-09T01:41:56.694Z,92.53
2022-10-09T01:44:31.471Z,92.23
2022-10-09T01:46:59.362Z,92.99
2022-10-09T01:49:37.815Z,92.71
2022-10-09T01:52:16.353Z,93.48
2022-10-09T01:54:59.913Z,93.63
2022-10-09T01:57:33.798Z,92.87
2022-10-09T02:00:07.238Z,92.99
2022-10-09T02:02:40.127Z,92.80
2022-10-09T02:05:09.522Z,92.22
2022-10-09T02:07:37.156Z,92.50
2022-10-09T02:10:05.949Z,92.57
2022-10-09T02:12:38.349Z,92.86
2022-10-09T02:15:05.747Z,92.66
2022-10-09T02:17:36.786Z,93.33
2022-10-09T02:20:11.865Z,93.74
2022-10-09T02:22:38.706Z,92.60
2022-10-09T02:25:06.716Z,92.98
2022-10-09T02:27:34.015Z,92.79
2022-10-09T02:30:01.334Z,92.87
2022-10-09T02:32:28.906Z,94.57
2022-10-09T02:34:55.520Z,94.60
2022-10-09T02:37:22.116Z,92.82
2022-10-09T02:39:49.112Z,93.46
2022-10-09T02:42:16.084Z,94.19
2022-10-09T02:44:42.707Z,93.61
2022-10-09T02:47:09.605Z,94.67
2022-10-09T02:49:36.199Z,94.65
2022-10-09T02:52:02.902Z,92.58
2022-10-09T02:54:29.517Z,93.69
2022-10-09T02:56:56.185Z,93.41
2022-10-09T02:59:22.788Z,94.54
2022-10-09T03:01:49.550Z,94.63
2022-10-09T03:04:16.404Z,94.53
2022-10-09T03:06:43.003Z,94.54
2022-10-09T03:09:09.562Z,93.37
2022-10-09T03:11:36.344Z,94.62
2022-10-09T03:14:02.909Z,94.38
2022-10-09T03:16:29.641Z,93.87
2022-10-09T03:18:56.468Z,95.01
2022-10-09T03:21:25.852Z,94.17
2022-10-09T03:23:53.584Z,93.83
2022-10-09T03:26:23.437Z,93.77
2022-10-09T03:28:51.970Z,94.36
2022-10-09T03:31:50.434Z,93.97
2022-10-09T03:34:07.432Z,93.65
2022-10-09T03:36:39.755Z,94.15
2022-10-09T03:39:06.417Z,93.69
2022-10-09T03:41:32.978Z,94.51
2022-10-09T03:43:59.628Z,94.51
2022-10-09T03:46:26.258Z,94.42
2022-10-09T03:48:52.912Z,94.86
2022-10-09T03:51:19.478Z,94.17
2022-10-09T03:53:46.122Z,94.11
2022-10-09T03:56:12.722Z,94.36
2022-10-09T03:58:39.329Z,94.48
2022-10-09T04:01:05.976Z,94.74
2022-10-09T04:03:32.814Z,94.46
2022-10-09T04:05:59.463Z,93.36
2022-10-09T04:08:26.419Z,93.80
2022-10-09T04:10:58.298Z,93.74
2022-10-09T04:13:25.204Z,94.08
2022-10-09T04:15:53.461Z,94.81
2022-10-09T04:18:20.286Z,93.78
2022-10-09T04:20:54.894Z,94.81
2022-10-09T04:23:24.539Z,95.22
2022-10-09T04:25:55.846Z,95.21
2022-10-09T04:28:23.545Z,95.97
2022-10-09T04:30:50.501Z,95.79
2022-10-09T04:33:17.147Z,95.95
2022-10-09T04:35:44.735Z,96.70
2022-10-09T04:38:12.003Z,96.87
2022-10-09T04:40:38.658Z,96.53
2022-10-09T04:43:05.306Z,96.28
2022-10-09T04:45:32.108Z,95.95
2022-10-09T04:47:58.758Z,95.71
2022-10-09T04:50:25.388Z,94.89
2022-10-09T04:52:58.193Z,95.16
2022-10-09T04:55:24.831Z,95.49
2022-10-09T04:57:51.370Z,95.13
2022-10-09T05:00:18.145Z,95.67
2022-10-09T05:02:44.673Z,95.54
2022-10-09T05:05:11.883Z,95.78
2022-10-09T05:07:38.694Z,95.82
2022-10-09T05:10:06.278Z,96.06
2022-10-09T05:12:32.824Z,96.34
2022-10-09T05:14:59.591Z,96.24
2022-10-09T05:17:26.182Z,97.01
2022-10-09T05:19:52.812Z,96.82
2022-10-09T05:22:19.361Z,95.59
2022-10-09T05:24:46.014Z,96.04
2022-10-09T05:27:12.732Z,94.92
2022-10-09T05:29:39.395Z,93.01
2022-10-09T05:32:06.135Z,95.01
2022-10-09T05:34:34.005Z,94.20
2022-10-09T05:37:00.660Z,93.27
2022-10-09T05:39:27.245Z,93.13
2022-10-09T05:41:53.794Z,93.54
2022-10-09T05:44:20.503Z,93.59
2022-10-09T05:46:47.091Z,94.35
2022-10-09T05:49:13.760Z,94.27
2022-10-09T05:51:42.865Z,94.25
2022-10-09T05:54:14.337Z,94.33
2022-10-09T05:56:42.449Z,94.71
2022-10-09T05:59:13.766Z,96.01
2022-10-09T06:01:46.782Z,94.88
2022-10-09T06:04:16.686Z,94.96
2022-10-09T06:06:44.148Z,95.15
2022-10-09T06:09:11.797Z,94.32
2022-10-09T06:11:39.722Z,93.74
2022-10-09T06:14:08.936Z,93.18
2022-10-09T06:16:38.514Z,93.12
2022-10-09T06:19:06.334Z,93.26
2022-10-09T06:21:33.397Z,92.74
2022-10-09T06:24:02.133Z,93.27
2022-10-09T06:26:29.921Z,92.97
2022-10-09T06:28:58.518Z,92.38
2022-10-09T06:31:28.142Z,93.35
2022-10-09T06:33:55.570Z,92.81
2022-10-09T06:36:28.034Z,93.01
2022-10-09T06:38:55.271Z,93.32
2022-10-09T06:41:24.513Z,93.55
2022-10-09T06:43:52.637Z,93.75
2022-10-09T06:46:21.075Z,93.93
2022-10-09T06:48:48.127Z,93.98
2022-10-09T06:51:17.457Z,94.28
2022-10-09T06:53:49.790Z,93.58
2022-10-09T06:56:18.032Z,94.32
2022-10-09T06:58:45.137Z,94.49
2022-10-09T07:01:20.260Z,94.36
2022-10-09T07:03:52.264Z,94.32
2022-10-09T07:06:24.954Z,95.69
2022-10-09T07:08:58.887Z,95.44
2022-10-09T07:11:28.053Z,95.50
2022-10-09T07:14:00.090Z,95.42
2022-10-09T07:16:33.695Z,95.49
2022-10-09T07:19:03.555Z,94.28
2022-10-09T07:21:30.349Z,94.71
2022-10-09T07:24:00.138Z,95.10
2022-10-09T07:26:28.760Z,94.79
2022-10-09T07:28:56.001Z,94.13
2022-10-09T07:31:23.298Z,94.37
2022-10-09T07:33:51.592Z,95.04
2022-10-09T07:36:18.786Z,95.21
2022-10-09T07:38:50.727Z,95.17
2022-10-09T07:41:17.731Z,94.78
2022-10-09T07:43:44.277Z,94.74
2022-10-09T07:46:13.699Z,94.75
2022-10-09T07:48:40.936Z,95.30
2022-10-09T07:51:13.449Z,95.68
2022-10-09T07:53:40.041Z,95.25
2022-10-09T07:56:07.395Z,96.63
2022-10-09T07:58:34.085Z,97.20
2022-10-09T08:01:05.969Z,97.24
2022-10-09T08:03:33.263Z,97.74
2022-10-09T08:06:00.057Z,97.59
2022-10-09T08:08:26.913Z,97.59
2022-10-09T08:10:53.589Z,98.12
2022-10-09T08:13:20.217Z,98.64
2022-10-09T08:15:46.877Z,98.25
2022-10-09T08:18:13.618Z,98.18
2022-10-09T08:20:40.312Z,98.34
2022-10-09T08:23:07.010Z,98.23
2022-10-09T08:25:37.429Z,97.67
2022-10-09T08:28:05.158Z,97.35
2022-10-09T08:30:32.036Z,96.80
2022-10-09T08:32:58.827Z,96.62
2022-10-09T08:35:25.426Z,96.06
2022-10-09T08:37:52.035Z,95.94
2022-10-09T08:40:58.103Z,96.50
2022-10-09T08:43:54.525Z,96.59
2022-10-09T08:46:26.210Z,96.85
2022-10-09T08:48:54.820Z,97.26
2022-10-09T08:51:28.142Z,96.99
2022-10-09T08:54:01.067Z,96.49
2022-10-09T08:56:30.040Z,96.04
2022-10-09T08:58:57.022Z,95.76
2022-10-09T09:01:34.576Z,96.65
2022-10-09T09:04:23.102Z,96.49
2022-10-09T09:06:49.735Z,96.71
2022-10-09T09:09:38.133Z,96.38
2022-10-09T09:12:34.396Z,96.12
2022-10-09T09:15:23.463Z,96.47
2022-10-09T09:18:06.422Z,96.99
2022-10-09T09:20:48.352Z,96.67
2022-10-09T09:23:16.458Z,96.51
2022-10-09T09:25:45.780Z,95.33
2022-10-09T09:28:18.440Z,95.91
2022-10-09T09:30:50.656Z,96.20
2022-10-09T09:33:44.633Z,95.92
2022-10-09T09:36:28.252Z,96.39
2022-10-09T09:39:36.275Z,96.08
2022-10-09T09:41:43.673Z,96.71
2022-10-09T09:44:13.069Z,96.74
2022-10-09T09:46:41.791Z,97.63
2022-10-09T09:49:27.250Z,97.98
2022-10-09T09:51:56.239Z,97.05
2022-10-09T09:54:25.799Z,97.54
2022-10-09T09:57:15.886Z,97.92
2022-10-09T09:59:44.104Z,97.61
2022-10-09T10:02:17.165Z,98.42
2022-10-09T10:04:56.432Z,98.35
2022-10-09T10:07:36.312Z,98.42
2022-10-09T10:10:25.621Z,98.04
2022-10-09T10:12:58.703Z,98.15
2022-10-09T10:15:27.542Z,97.98
2022-10-09T10:18:06.721Z,97.04
2022-10-09T10:20:44.795Z,97.01
2022-10-09T10:23:33.276Z,96.47
2022-10-09T10:26:05.849Z,96.81
2022-10-09T10:28:41.560Z,97.44
2022-10-09T10:31:16.246Z,97.69
2022-10-09T10:33:47.933Z,97.38
2022-10-09T10:36:15.045Z,98.19
2022-10-09T10:38:52.619Z,98.50
2022-10-09T10:41:27.959Z,98.19
2022-10-09T10:44:17.925Z,97.71
2022-10-09T10:46:52.460Z,96.48
2022-10-09T10:49:23.282Z,95.84
2022-10-09T10:52:04.392Z,96.04
2022-10-09T10:54:43.013Z,96.81
2022-10-09T10:57:33.391Z,96.43
2022-10-09T11:00:14.014Z,96.01
2022-10-09T11:02:59.403Z,96.14
2022-10-09T11:05:30.199Z,96.56
2022-10-09T11:08:24.516Z,96.50
2022-10-09T11:11:19.476Z,96.86
2022-10-09T11:13:56.492Z,96.53
2022-10-09T11:17:04.417Z,96.55
2022-10-09T11:20:05.429Z,96.90
2022-10-09T11:22:53.436Z,95.72
2022-10-09T11:25:40.680Z,95.77
2022-10-09T11:28:22.817Z,96.46
2022-10-09T11:31:20.448Z,97.08
2022-10-09T11:33:52.032Z,97.95
2022-10-09T11:36:25.136Z,98.25
2022-10-09T11:38:57.633Z,98.29
2022-10-09T11:41:26.494Z,98.46
2022-10-09T11:44:05.266Z,98.12
2022-10-09T11:46:50.042Z,98.03
2022-10-09T11:49:23.170Z,97.61
2022-10-09T11:52:04.126Z,97.47
2022-10-09T11:54:31.079Z,97.34
2022-10-09T11:57:06.193Z,97.58
2022-10-09T11:59:36.565Z,98.51
2022-10-09T12:02:39.006Z,98.63
2022-10-09T12:05:44.602Z,99.32
2022-10-09T12:08:19.212Z,100.00
2022-10-09T12:11:00.317Z,100.00
2022-10-09T12:13:39.099Z,100.00
2022-10-09T12:16:07.758Z,100.00
2022-10-09T12:18:39.032Z,100.00
2022-10-09T12:21:09.050Z,99.72
2022-10-09T12:23:41.015Z,99.90
2022-10-09T12:26:13.045Z,99.03
2022-10-09T12:28:45.980Z,97.96
2022-10-09T12:31:21.491Z,98.28
2022-10-09T12:33:51.580Z,98.79
2022-10-09T12:36:26.770Z,98.15
2022-10-09T12:38:54.056Z,98.25
2022-10-09T12:41:26.654Z,98.89
2022-10-09T12:43:55.365Z,98.95
2022-10-09T12:46:30.536Z,98.29
2022-10-09T12:48:58.480Z,98.80
2022-10-09T12:51:26.963Z,99.41
2022-10-09T12:53:54.652Z,99.55
2022-10-09T12:56:25.442Z,99.33
2022-10-09T12:58:53.433Z,99.66
2022-10-09T13:01:21.363Z,99.15
2022-10-09T13:04:04.235Z,99.64
2022-10-09T13:06:38.395Z,100.00
2022-10-09T13:09:07.444Z,98.56
2022-10-09T13:11:35.439Z,99.59
2022-10-09T13:14:02.346Z,100.00
2022-10-09T13:16:42.129Z,100.00
2022-10-09T13:19:38.266Z,100.00
2022-10-09T13:22:18.479Z,100.00
2022-10-09T13:24:45.413Z,100.00
2022-10-09T13:27:14.650Z,100.00
2022-10-09T13:29:43.011Z,100.00
2022-10-09T13:32:13.225Z,99.87
2022-10-09T13:34:40.198Z,100.00
2022-10-09T13:37:06.841Z,100.00
2022-10-09T13:39:33.693Z,100.00
2022-10-09T13:42:01.990Z,100.00
2022-10-09T13:44:28.797Z,100.00
2022-10-09T13:46:55.565Z,99.72
2022-10-09T13:49:22.234Z,98.96
2022-10-09T13:51:48.874Z,99.02
2022-10-09T13:54:15.620Z,99.53
2022-10-09T13:56:42.193Z,99.69
2022-10-09T13:59:08.904Z,100.00
2022-10-09T14:01:35.636Z,100.00
2022-10-09T14:04:02.491Z,100.00
2022-10-09T14:06:29.058Z,99.55
2022-10-09T14:08:57.399Z,100.00
2022-10-09T14:11:24.108Z,99.74
2022-10-09T14:13:50.682Z,99.39
2022-10-09T14:16:17.338Z,99.35
2022-10-09T14:18:44.078Z,100.00
2022-10-09T14:21:16.042Z,100.00
2022-10-09T14:23:43.355Z,100.00
2022-10-09T14:26:10.105Z,100.00
2022-10-09T14:28:37.074Z,100.00
2022-10-09T14:31:07.645Z,100.00
2022-10-09T14:33:34.713Z,100.00
2022-10-09T14:36:09.461Z,100.00
2022-10-09T14:38:40.407Z,100.00
2022-10-09T14:41:07.801Z,99.38
2022-10-09T14:43:35.480Z,97.97
2022-10-09T14:46:04.835Z,98.93
2022-10-09T14:48:31.447Z,99.59
2022-10-09T14:51:03.197Z,99.02
2022-10-09T14:53:29.957Z,99.90
2022-10-09T14:56:00.130Z,99.87
2022-10-09T14:58:29.320Z,99.76
2022-10-09T15:00:56.246Z,99.72
2022-10-09T15:03:23.061Z,100.00
2022-10-09T15:05:49.816Z,99.50
2022-10-09T15:08:16.518Z,100.00
2022-10-09T15:10:46.206Z,99.75
2022-10-09T15:13:12.913Z,99.98
2022-10-09T15:15:39.819Z,99.55
2022-10-09T15:18:06.564Z,99.66
2022-10-09T15:20:33.425Z,99.55
2022-10-09T15:23:00.098Z,99.52
2022-10-09T15:25:31.636Z,99.76
2022-10-09T15:28:00.758Z,100.00
2022-10-09T15:30:29.049Z,98.92
2022-10-09T15:32:56.305Z,98.70
2022-10-09T15:35:23.374Z,99.15
2022-10-09T15:37:53.738Z,99.79
2022-10-09T15:40:22.575Z,99.84
2022-10-09T15:42:49.727Z,99.97
2022-10-09T15:45:16.637Z,100.00
2022-10-09T15:47:51.015Z,100.00
2022-10-09T15:50:18.347Z,99.95
2022-10-09T15:52:44.927Z,100.00
2022-10-09T15:55:11.591Z,100.00
2022-10-09T15:57:38.231Z,99.15
2022-10-09T16:00:05.706Z,98.33
2022-10-09T16:02:32.425Z,98.46
2022-10-09T16:04:59.142Z,98.58
2022-10-09T16:07:25.801Z,99.03
2022-10-09T16:09:52.930Z,99.15
2022-10-09T16:12:19.665Z,98.87
2022-10-09T16:14:46.295Z,98.50
2022-10-09T16:17:12.925Z,98.83
2022-10-09T16:19:39.736Z,98.45
2022-10-09T16:22:06.726Z,97.32
2022-10-09T16:24:33.696Z,97.36
2022-10-09T16:27:00.542Z,97.86
2022-10-09T16:29:27.278Z,98.67
2022-10-09T16:31:56.072Z,99.33
2022-10-09T16:34:22.911Z,98.78
2022-10-09T16:36:49.607Z,99.83
2022-10-09T16:39:17.281Z,100.00
2022-10-09T16:41:44.016Z,100.00
2022-10-09T16:44:13.805Z,99.45
2022-10-09T16:46:40.447Z,98.09
2022-10-09T16:49:07.282Z,98.00
2022-10-09T16:51:36.231Z,98.15
2022-10-09T16:54:05.336Z,98.02
2022-10-09T16:56:35.005Z,97.11
2022-10-09T16:59:05.251Z,96.44
2022-10-09T17:01:32.968Z,95.67
2022-10-09T17:04:00.280Z,95.94
2022-10-09T17:06:27.195Z,96.38
2022-10-09T17:08:57.573Z,96.09
2022-10-09T17:11:25.788Z,96.44
2022-10-09T17:13:56.643Z,95.47
2022-10-09T17:16:27.047Z,96.64
2022-10-09T17:18:54.413Z,96.60
2022-10-09T17:21:21.351Z,96.38
2022-10-09T17:23:48.277Z,96.90
2022-10-09T17:26:17.227Z,96.60
2022-10-09T17:28:44.524Z,97.65
2022-10-09T17:31:16.778Z,97.25
2022-10-09T17:33:45.994Z,97.10
2022-10-09T17:36:15.283Z,96.93
2022-10-09T17:38:42.089Z,96.74
2022-10-09T17:41:11.490Z,96.01
2022-10-09T17:43:38.847Z,96.58
2022-10-09T17:46:06.065Z,97.09
2022-10-09T17:48:34.136Z,97.00
2022-10-09T17:51:03.920Z,96.94
2022-10-09T17:53:31.338Z,95.92
2022-10-09T17:56:03.201Z,96.04
2022-10-09T17:58:29.978Z,96.00
2022-10-09T18:00:56.647Z,96.30
2022-10-09T18:03:23.412Z,96.42
2022-10-09T18:05:51.418Z,97.22
2022-10-09T18:08:19.671Z,96.72
2022-10-09T18:10:46.451Z,96.94
2022-10-09T18:13:13.169Z,96.56
2022-10-09T18:15:42.060Z,97.07
2022-10-09T18:18:10.340Z,96.86
2022-10-09T18:20:38.525Z,96.92
2022-10-09T18:23:05.710Z,96.32
2022-10-09T18:25:32.884Z,95.95
2022-10-09T18:27:59.946Z,95.71
2022-10-09T18:30:27.766Z,96.23
2022-10-09T18:32:54.605Z,96.07
2022-10-09T18:35:21.328Z,96.00
2022-10-09T18:37:48.052Z,95.48
2022-10-09T18:40:14.636Z,95.82
2022-10-09T18:42:41.451Z,94.64
2022-10-09T18:45:10.334Z,95.05
2022-10-09T18:47:37.057Z,95.37
2022-10-09T18:50:07.994Z,95.71
2022-10-09T18:52:36.922Z,95.82
2022-10-09T18:55:06.140Z,95.15
2022-10-09T18:57:34.204Z,95.44
2022-10-09T19:00:01.944Z,95.14
2022-10-09T19:02:28.763Z,95.50
2022-10-09T19:04:55.550Z,94.92
2022-10-09T19:07:22.440Z,95.44
2022-10-09T19:09:53.608Z,95.77
2022-10-09T19:12:23.182Z,95.87
2022-10-09T19:14:49.902Z,96.51
2022-10-09T19:17:16.882Z,96.40
2022-10-09T19:19:43.656Z,96.64
2022-10-09T19:22:14.866Z,96.22
2022-10-09T19:24:43.727Z,97.03
2022-10-09T19:27:10.497Z,96.79
2022-10-09T19:29:37.356Z,96.32
2022-10-09T19:32:04.096Z,96.46
2022-10-09T19:34:30.889Z,97.15
2022-10-09T19:36:57.723Z,96.85
2022-10-09T19:39:24.398Z,96.50
2022-10-09T19:41:51.160Z,97.25
2022-10-09T19:44:18.595Z,96.68
2022-10-09T19:46:45.895Z,96.78
2022-10-09T19:49:12.735Z,97.20
2022-10-09T19:51:39.577Z,96.82
2022-10-09T19:54:07.979Z,97.08
2022-10-09T19:56:36.108Z,96.22
2022-10-09T19:59:05.694Z,97.29
2022-10-09T20:01:35.264Z,97.89
2022-10-09T20:04:07.553Z,97.25
2022-10-09T20:06:36.891Z,96.96
2022-10-09T20:09:04.894Z,97.39
2022-10-09T20:11:32.028Z,97.62
2022-10-09T20:13:58.832Z,97.89
2022-10-09T20:16:27.740Z,97.64
2022-10-09T20:18:55.392Z,97.60
2022-10-09T20:21:22.171Z,97.92
2022-10-09T20:23:48.731Z,97.56
2022-10-09T20:26:18.406Z,97.80
2022-10-09T20:28:46.322Z,96.79
2022-10-09T20:31:18.027Z,96.35
2022-10-09T20:33:46.015Z,96.18
2022-10-09T20:36:32.530Z,95.92
2022-10-09T20:39:00.854Z,96.17
2022-10-09T20:41:29.328Z,96.57
2022-10-09T20:43:58.290Z,96.18
2022-10-09T20:46:27.911Z,95.76
2022-10-09T20:48:55.038Z,96.00
2022-10-09T20:51:22.396Z,95.75
2022-10-09T20:53:57.731Z,95.59
2022-10-09T20:56:26.053Z,96.50
2022-10-09T20:58:54.225Z,97.20
2022-10-09T21:01:22.024Z,96.86
2022-10-09T21:03:49.786Z,97.28
2022-10-09T21:06:19.747Z,96.16
2022-10-09T21:08:46.518Z,96.92
2022-10-09T21:11:19.546Z,97.30
2022-10-09T21:13:49.505Z,97.05
2022-10-09T21:16:22.335Z,97.47
2022-10-09T21:18:54.351Z,97.56
2022-10-09T21:21:21.140Z,97.63
2022-10-09T21:23:54.249Z,97.91
2022-10-09T21:26:22.840Z,97.79
2022-10-09T21:28:52.444Z,98.17
2022-10-09T21:31:26.037Z,98.53
2022-10-09T21:33:53.003Z,97.68
2022-10-09T21:36:30.591Z,97.42
2022-10-09T21:38:57.651Z,98.54
2022-10-09T21:41:24.609Z,97.87
2022-10-09T21:43:51.460Z,98.25
2022-10-09T21:46:18.018Z,98.25
2022-10-09T21:48:44.957Z,98.02
2022-10-09T21:51:11.604Z,98.71
2022-10-09T21:53:38.445Z,98.59
2022-10-09T21:56:06.698Z,98.32
2022-10-09T21:58:33.458Z,98.15
2022-10-09T22:01:01.444Z,97.54
2022-10-09T22:03:30.386Z,98.01
2022-10-09T22:05:57.322Z,97.90
2022-10-09T22:08:24.756Z,97.46
2022-10-09T22:10:52.318Z,97.52
2022-10-09T22:13:20.239Z,98.19
2022-10-09T22:15:50.921Z,98.91
2022-10-09T22:18:19.074Z,98.12
2022-10-09T22:20:49.214Z,98.36
2022-10-09T22:23:18.027Z,98.52
2022-10-09T22:25:44.948Z,98.74
2022-10-09T22:28:11.664Z,98.96
2022-10-09T22:30:38.228Z,98.40
2022-10-09T22:33:04.907Z,98.63
2022-10-09T22:35:31.509Z,98.41
2022-10-09T22:37:58.162Z,98.87
2022-10-09T22:40:24.732Z,99.89
2022-10-09T22:42:51.719Z,98.79
2022-10-09T22:45:18.550Z,99.14
2022-10-09T22:47:47.494Z,98.38
2022-10-09T22:50:14.435Z,98.65
2022-10-09T22:52:41.033Z,98.63
2022-10-09T22:55:08.031Z,98.86
2022-10-09T22:57:34.745Z,98.51
2022-10-09T23:00:01.283Z,98.22
2022-10-09T23:02:27.878Z,97.13
2022-10-09T23:04:54.509Z,97.38
2022-10-09T23:07:21.161Z,97.81
2022-10-09T23:09:47.771Z,96.81
2022-10-09T23:12:14.583Z,96.37
2022-10-09T23:14:41.120Z,97.04
2022-10-09T23:17:07.766Z,96.97
2022-10-09T23:19:34.762Z,97.18
2022-10-09T23:22:01.494Z,96.94
2022-10-09T23:24:28.049Z,96.89
2022-10-09T23:26:54.715Z,96.76
2022-10-09T23:29:21.340Z,97.29
2022-10-09T23:31:51.509Z,97.54
2022-10-09T23:34:18.227Z,97.62
2022-10-09T23:36:44.776Z,97.26
2022-10-09T23:39:12.674Z,98.36
2022-10-09T23:41:39.524Z,98.28
2022-10-09T23:44:06.207Z,97.52
2022-10-09T23:46:33.803Z,97.44
2022-10-09T23:49:01.156Z,97.00
2022-10-09T23:51:28.539Z,96.75
2022-10-09T23:53:55.732Z,96.42
2022-10-09T23:56:27.953Z,97.23
2022-10-09T23:58:55.713Z,96.60
